Terminal Aerodrome Forecast
Issued by NWS Springfield, MO

Home | Current Version | Previous Version | Text Only | Print | Product List | Glossary On
Versions: 1 2 3 4 5 6 7 8 9 10 11 12 13 14 15 16 17 18
000
FTUS43 KSGF 152200 AAA
TAFSGF
TAF AMD
KSGF 152208Z 1522/1618 26014KT P6SM VCTS SCT040 BKN050CB
      TEMPO 1523/1524 6SM TSRA FEW030 BKN040CB
     FM160100 03006KT P6SM SCT015 OVC025
     FM160300 01005KT P6SM OVC010
     FM160800 02007KT P6SM OVC007=

USA.gov is the U.S. government's official web portal to all federal, state and local government web resources and services.